Time;durP1;ratioP1;P1;durP2;ratioP2;P2;SDS_P1;SDS_P2;PMS_P1;PMS_P2;Temp;Humidity;BMP_temperature;BMP_pressure;BME280_temperature;BME280_humidity;BME280_pressure;Samples;Min_cycle;Max_cycle;Signal;HPM_P1;HPM_P2
2022/04/04 00:01:11;;;;;;;10.93;5.20;;;3.70;99.90;;;;;;5093079;28;20047;-60
2022/04/04 00:03:37;;;;;;;8.00;5.25;;;3.60;99.90;;;;;;5094229;28;20209;-60
2022/04/04 00:06:02;;;;;;;8.30;5.05;;;3.40;99.90;;;;;;5093904;28;20044;-60
2022/04/04 00:08:28;;;;;;;12.00;5.03;;;3.60;99.90;;;;;;5094165;28;20047;-61
2022/04/04 00:10:54;;;;;;;9.03;5.40;;;4.20;99.90;;;;;;5093750;28;20827;-60
2022/04/04 00:13:20;;;;;;;10.50;4.97;;;3.80;99.90;;;;;;5092795;28;20040;-60
2022/04/04 00:15:47;;;;;;;9.80;4.70;;;3.80;99.90;;;;;;5092732;28;20040;-60
2022/04/04 00:18:13;;;;;;;7.40;5.40;;;;;;;;;;5093909;28;20749;-60
2022/04/04 00:20:40;;;;;;;11.45;4.82;;;4.30;99.90;;;;;;5093837;28;20048;-60
2022/04/04 00:23:13;;;;;;;9.63;4.50;;;4.00;99.90;;;;;;5093540;28;20440;-60
2022/04/04 00:25:43;;;;;;;7.18;4.10;;;3.80;99.90;;;;;;5093764;28;20491;-60
2022/04/04 00:28:09;;;;;;;9.68;4.63;;;4.10;99.90;;;;;;5092502;28;20050;-60
2022/04/04 00:30:36;;;;;;;7.43;4.60;;;4.00;99.90;;;;;;5093691;28;20090;-60
2022/04/04 00:33:02;;;;;;;6.97;4.43;;;4.10;99.90;;;;;;5093640;28;20101;-60
2022/04/04 00:35:29;;;;;;;7.05;4.60;;;3.90;99.90;;;;;;5093573;28;20115;-59
2022/04/04 00:37:57;;;;;;;9.32;4.57;;;4.10;99.90;;;;;;5093541;28;20049;-59
2022/04/04 00:40:23;;;;;;;14.40;5.63;;;4.40;99.90;;;;;;5093453;28;20376;-60
2022/04/04 00:42:49;;;;;;;8.95;4.90;;;4.10;99.90;;;;;;5093042;28;20063;-61
2022/04/04 00:45:14;;;;;;;9.18;4.85;;;4.30;99.90;;;;;;5092408;28;20051;-61
2022/04/04 00:47:40;;;;;;;9.38;5.50;;;4.10;99.90;;;;;;5093679;28;20132;-60
2022/04/04 00:50:06;;;;;;;12.73;5.72;;;4.00;99.90;;;;;;5093327;28;20040;-60
2022/04/04 00:52:33;;;;;;;11.45;6.07;;;4.50;99.90;;;;;;5093273;28;20165;-59
2022/04/04 00:54:58;;;;;;;11.07;6.07;;;4.50;99.90;;;;;;5093258;28;20051;-60
2022/04/04 00:57:24;;;;;;;12.63;7.05;;;4.40;99.90;;;;;;5093229;28;20044;-60
2022/04/04 00:59:50;;;;;;;9.32;6.57;;;4.30;99.90;;;;;;5093242;28;20405;-60
2022/04/04 01:02:16;;;;;;;11.50;7.00;;;;;;;;;;5093192;28;20105;-60
2022/04/04 01:04:42;;;;;;;10.90;7.40;;;4.50;99.90;;;;;;5093117;28;20047;-59
2022/04/04 01:07:08;;;;;;;11.50;7.13;;;4.50;99.90;;;;;;5093069;28;20399;-59
2022/04/04 01:09:34;;;;;;;17.83;8.18;;;4.40;99.90;;;;;;5093062;28;20097;-60
2022/04/04 01:12:07;;;;;;;11.77;7.97;;;4.60;99.90;;;;;;5092662;28;20399;-60
2022/04/04 01:14:36;;;;;;;17.48;7.90;;;4.30;99.90;;;;;;5092940;28;20048;-60
2022/04/04 01:17:02;;;;;;;11.90;8.18;;;4.40;99.90;;;;;;5093272;28;20054;-60
2022/04/04 01:19:27;;;;;;;13.93;8.75;;;4.40;99.90;;;;;;5092962;28;20044;-60
2022/04/04 01:21:53;;;;;;;17.55;9.02;;;4.70;99.90;;;;;;5092572;28;20450;-59
2022/04/04 01:24:20;;;;;;;13.63;9.73;;;4.70;99.90;;;;;;5092869;28;20056;-62
2022/04/04 01:26:51;;;;;;;14.82;9.93;;;4.60;99.90;;;;;;5092810;28;20048;-60
2022/04/04 01:29:18;;;;;;;16.13;10.80;;;4.60;99.90;;;;;;5092818;28;20214;-60
2022/04/04 01:31:44;;;;;;;23.38;12.23;;;4.50;99.90;;;;;;5092801;28;20048;-59
2022/04/04 01:34:09;;;;;;;18.85;11.57;;;5.10;99.90;;;;;;5092712;28;20052;-60
2022/04/04 01:36:35;;;;;;;22.02;12.52;;;4.90;99.90;;;;;;5092696;28;20464;-60
2022/04/04 01:39:01;;;;;;;20.43;12.10;;;4.90;99.90;;;;;;5092731;28;20054;-60
2022/04/04 01:41:27;;;;;;;23.00;12.50;;;5.00;99.90;;;;;;5092460;28;20274;-60
2022/04/04 01:43:53;;;;;;;;;;;4.70;99.90;;;;;;5093139;28;20147;-60
2022/04/04 01:46:24;;;;;;;17.77;12.57;;;4.90;99.90;;;;;;5092625;28;20436;-60
2022/04/04 01:48:54;;;;;;;25.45;13.55;;;4.90;99.90;;;;;;5092661;28;20483;-60
2022/04/04 01:51:20;;;;;;;18.88;12.90;;;4.90;99.90;;;;;;5092580;28;20051;-61
2022/04/04 01:53:46;;;;;;;19.38;13.57;;;5.20;99.90;;;;;;5092592;28;20127;-60
2022/04/04 01:56:12;;;;;;;21.70;13.98;;;5.10;99.90;;;;;;5092494;28;20372;-60
2022/04/04 01:58:39;;;;;;;20.48;13.20;;;5.20;99.90;;;;;;5092504;28;20083;-60
2022/04/04 02:01:12;;;;;;;26.65;15.05;;;4.90;99.90;;;;;;5092530;28;20048;-61
2022/04/04 02:03:38;;;;;;;20.90;14.55;;;5.20;99.90;;;;;;5092460;28;20126;-60
2022/04/04 02:06:04;;;;;;;25.30;15.82;;;4.80;99.90;;;;;;5092395;28;20543;-60
2022/04/04 02:08:31;;;;;;;24.75;15.07;;;5.00;99.90;;;;;;5092174;28;20444;-60
2022/04/04 02:10:57;;;;;;;24.58;15.93;;;5.00;99.90;;;;;;5092386;28;20059;-60
2022/04/04 02:13:25;;;;;;;22.70;15.90;;;5.30;99.90;;;;;;5092384;28;20052;-60
2022/04/04 02:15:52;;;;;;;22.25;15.63;;;5.10;99.90;;;;;;5092344;28;20040;-60
2022/04/04 02:18:19;;;;;;;24.58;15.48;;;4.90;99.90;;;;;;5092320;28;20055;-59
2022/04/04 02:20:46;;;;;;;25.38;15.82;;;5.10;99.90;;;;;;5091107;28;20450;-60
2022/04/04 02:23:11;;;;;;;26.52;15.98;;;5.30;99.90;;;;;;5092339;28;20109;-60
2022/04/04 02:25:38;;;;;;;26.52;16.08;;;;;;;;;;5095658;28;20384;-60
2022/04/04 02:28:03;;;;;;;;;;;5.30;99.90;;;;;;5096506;28;20048;-60
2022/04/04 02:30:30;;;;;;;24.58;16.10;;;5.50;99.90;;;;;;5096018;28;19923;-60
2022/04/04 02:32:55;;;;;;;24.38;15.95;;;5.40;99.90;;;;;;5096016;28;20044;-59
2022/04/04 02:35:21;;;;;;;29.60;16.10;;;5.60;99.90;;;;;;5096136;28;20433;-60
2022/04/04 02:37:47;;;;;;;25.40;16.42;;;5.70;99.90;;;;;;5095964;28;20055;-60
2022/04/04 02:40:13;;;;;;;25.83;16.48;;;5.40;99.90;;;;;;5095814;28;20044;-60
2022/04/04 02:42:39;;;;;;;27.38;17.70;;;5.30;99.90;;;;;;5095753;28;20048;-60
2022/04/04 02:45:05;;;;;;;25.45;16.58;;;5.70;99.90;;;;;;5095807;28;20050;-60
2022/04/04 02:47:31;;;;;;;25.27;16.75;;;5.40;99.90;;;;;;5095759;28;20139;-60
2022/04/04 02:49:57;;;;;;;27.75;17.90;;;5.70;99.90;;;;;;5095726;28;20082;-60
2022/04/04 02:52:22;;;;;;;29.92;17.05;;;5.30;99.90;;;;;;5095567;28;20044;-59
2022/04/04 02:54:48;;;;;;;30.08;17.33;;;5.60;99.90;;;;;;5095511;28;20043;-60
2022/04/04 02:57:16;;;;;;;31.60;17.27;;;5.50;99.90;;;;;;5095543;28;20040;-60
2022/04/04 02:59:42;;;;;;;28.15;17.60;;;5.40;99.90;;;;;;5095478;28;20075;-60
2022/04/04 03:02:08;;;;;;;28.83;17.92;;;5.70;99.90;;;;;;5095385;28;20044;-60
2022/04/04 03:04:35;;;;;;;28.90;18.10;;;5.70;99.90;;;;;;5095346;28;20044;-60
2022/04/04 03:07:00;;;;;;;30.83;18.23;;;5.30;99.90;;;;;;5095392;28;20075;-63
2022/04/04 03:09:27;;;;;;;26.83;16.55;;;5.40;99.90;;;;;;5095347;28;20075;-60
2022/04/04 03:11:52;;;;;;;24.08;17.13;;;5.80;99.90;;;;;;5095236;28;20051;-59
2022/04/04 03:14:18;;;;;;;22.98;16.10;;;5.50;99.90;;;;;;5093967;28;20044;-60
2022/04/04 03:16:43;;;;;;;25.10;17.45;;;5.50;99.90;;;;;;5095134;28;20040;-60
2022/04/04 03:19:09;;;;;;;25.90;16.98;;;5.60;99.90;;;;;;5095133;28;20048;-60
2022/04/04 03:21:35;;;;;;;30.63;18.00;;;5.40;99.90;;;;;;5095059;28;20490;-60
2022/04/04 03:24:01;;;;;;;25.27;15.63;;;5.50;99.90;;;;;;5093840;28;20052;-61
2022/04/04 03:26:31;;;;;;;22.70;15.75;;;5.20;99.90;;;;;;5094966;28;20036;-61
2022/04/04 03:28:57;;;;;;;30.08;18.30;;;5.40;99.90;;;;;;5094988;28;20052;-62
2022/04/04 03:31:22;;;;;;;30.15;17.92;;;5.60;99.90;;;;;;5094894;28;20162;-61
2022/04/04 03:33:48;;;;;;;26.08;17.95;;;5.30;99.90;;;;;;5094890;28;20369;-61
2022/04/04 03:36:14;;;;;;;28.20;19.52;;;5.40;99.90;;;;;;5094638;28;20478;-62
2022/04/04 03:38:40;;;;;;;35.08;19.80;;;5.20;99.90;;;;;;5094719;28;20040;-61
2022/04/04 03:41:05;;;;;;;33.10;18.52;;;5.10;99.90;;;;;;5094681;28;20058;-63
2022/04/04 03:43:31;;;;;;;32.72;17.70;;;5.30;99.90;;;;;;5092898;28;20060;-62
2022/04/04 03:45:57;;;;;;;28.95;19.83;;;5.10;99.90;;;;;;5094547;28;20036;-61
2022/04/04 03:48:23;;;;;;;31.17;19.58;;;5.10;99.90;;;;;;5094560;28;20048;-61
2022/04/04 03:50:51;;;;;;;32.53;18.77;;;5.40;99.90;;;;;;5094130;28;20052;-61
2022/04/04 03:53:17;;;;;;;30.58;18.73;;;5.30;99.90;;;;;;5094437;28;20056;-62
2022/04/04 03:55:43;;;;;;;28.58;17.02;;;5.10;99.90;;;;;;5093989;28;20121;-61
2022/04/04 03:58:10;;;;;;;;;;;5.10;99.90;;;;;;5094718;28;20052;-61
2022/04/04 04:00:38;;;;;;;23.08;13.05;;;5.30;99.90;;;;;;5093066;28;19920;-61
2022/04/04 04:03:04;;;;;;;27.83;14.10;;;5.30;99.90;;;;;;5092620;28;20551;-61
2022/04/04 04:05:30;;;;;;;26.25;14.15;;;5.40;99.90;;;;;;5094254;28;20404;-61
2022/04/04 04:07:56;;;;;;;27.48;14.40;;;5.20;99.90;;;;;;5094165;28;20059;-61
2022/04/04 04:10:22;;;;;;;21.98;11.95;;;5.20;99.90;;;;;;5094106;28;20058;-63
2022/04/04 04:12:48;;;;;;;;;;;5.10;99.90;;;;;;5094463;28;20047;-61
2022/04/04 04:15:19;;;;;;;20.90;13.05;;;5.20;99.90;;;;;;5093978;28;19942;-61
2022/04/04 04:17:45;;;;;;;19.73;11.80;;;5.20;99.90;;;;;;5093649;28;20518;-61
2022/04/04 04:20:20;;;;;;;26.15;12.30;;;5.40;99.90;;;;;;5093934;28;20052;-64
2022/04/04 04:22:50;;;;;;;24.23;13.23;;;5.20;99.90;;;;;;5093903;28;20040;-62
2022/04/04 04:25:16;;;;;;;23.38;13.93;;;;;;;;;;5093835;28;20043;-61
2022/04/04 04:27:43;;;;;;;22.48;12.38;;;5.10;99.90;;;;;;5092537;28;20077;-63
2022/04/04 04:30:10;;;;;;;22.40;13.55;;;5.10;99.90;;;;;;5092127;28;20048;-62
2022/04/04 04:32:35;;;;;;;;;;;4.90;99.90;;;;;;5093986;28;20474;-61
2022/04/04 04:35:01;;;;;;;21.27;12.57;;;4.90;99.90;;;;;;5093545;28;19982;-61
2022/04/04 04:37:26;;;;;;;28.15;15.38;;;5.00;99.90;;;;;;5093570;28;20097;-64
2022/04/04 04:39:52;;;;;;;31.52;14.68;;;5.00;99.90;;;;;;5092261;28;20392;-63
2022/04/04 04:42:18;;;;;;;29.00;16.70;;;4.80;99.90;;;;;;5093230;28;20062;-62
2022/04/04 04:44:45;;;;;;;30.27;17.48;;;4.70;99.90;;;;;;5093415;28;20404;-62
2022/04/04 04:47:11;;;;;;;30.92;17.17;;;5.10;99.90;;;;;;5092374;28;20460;-62
2022/04/04 04:49:37;;;;;;;33.22;16.67;;;5.00;99.90;;;;;;5093342;28;20055;-64
2022/04/04 04:52:03;;;;;;;29.90;14.88;;;4.80;99.90;;;;;;5093272;28;20047;-63
2022/04/04 04:54:30;;;;;;;;;;;4.80;99.90;;;;;;5093634;28;20051;-61
2022/04/04 04:56:57;;;;;;;30.00;14.20;;;4.60;99.90;;;;;;5093180;28;20405;-63
2022/04/04 04:59:23;;;;;;;22.25;13.85;;;5.10;99.90;;;;;;5093179;28;20040;-63
2022/04/04 05:01:48;;;;;;;27.35;14.13;;;4.70;99.90;;;;;;5093100;28;20047;-63
2022/04/04 05:04:14;;;;;;;23.55;12.98;;;4.70;99.90;;;;;;5093122;28;20059;-62
2022/04/04 05:06:40;;;;;;;27.58;14.25;;;4.70;99.90;;;;;;5093089;28;20039;-63
2022/04/04 05:09:06;;;;;;;20.60;12.70;;;4.90;99.90;;;;;;5093066;28;20047;-62
2022/04/04 05:11:32;;;;;;;27.88;15.10;;;4.80;99.90;;;;;;5093067;28;20063;-62
2022/04/04 05:13:58;;;;;;;23.58;13.68;;;4.60;99.90;;;;;;5092972;28;20052;-62
2022/04/04 05:16:28;;;;;;;22.40;10.88;;;4.70;99.90;;;;;;5092818;28;20352;-62
2022/04/04 05:18:55;;;;;;;19.65;10.15;;;4.50;99.90;;;;;;5092615;28;20467;-63
2022/04/04 05:21:21;;;;;;;16.27;8.98;;;4.80;99.90;;;;;;5092808;28;20091;-63
2022/04/04 05:23:47;;;;;;;12.27;6.95;;;4.70;99.90;;;;;;5092844;28;20137;-65
2022/04/04 05:26:13;;;;;;;14.40;7.57;;;4.40;99.90;;;;;;5092784;28;20403;-64
2022/04/04 05:28:39;;;;;;;16.08;9.07;;;4.30;99.90;;;;;;5092765;28;20075;-61
2022/04/04 05:31:05;;;;;;;16.63;7.72;;;4.50;99.90;;;;;;5091625;28;20055;-62
2022/04/04 05:33:31;;;;;;;17.80;8.50;;;4.50;99.90;;;;;;5092388;28;20127;-63
2022/04/04 05:35:57;;;;;;;14.38;8.88;;;4.70;99.90;;;;;;5092612;28;20087;-63
2022/04/04 05:38:23;;;;;;;17.75;9.38;;;4.50;99.90;;;;;;5092679;28;20533;-63
2022/04/04 05:40:48;;;;;;;22.60;8.20;;;4.70;99.90;;;;;;5092686;28;20077;-62
2022/04/04 05:43:14;;;;;;;8.13;5.80;;;4.50;99.90;;;;;;5092574;28;20139;-62
2022/04/04 05:45:40;;;;;;;10.77;6.22;;;4.20;99.90;;;;;;5092600;28;20476;-62
2022/04/04 05:48:06;;;;;;;12.30;5.45;;;4.30;99.90;;;;;;5092571;28;20055;-63
2022/04/04 05:50:33;;;;;;;11.80;5.63;;;4.10;99.90;;;;;;5092572;28;20817;-62
2022/04/04 05:52:58;;;;;;;13.93;5.82;;;3.90;99.90;;;;;;5092575;28;20506;-63
2022/04/04 05:55:24;;;;;;;12.35;5.60;;;4.20;99.90;;;;;;5092444;28;20040;-62
2022/04/04 05:57:50;;;;;;;12.65;5.10;;;3.90;99.90;;;;;;5092790;28;20052;-62
2022/04/04 06:00:16;;;;;;;11.68;4.13;;;4.40;99.90;;;;;;5096603;28;20047;-62
2022/04/04 06:02:43;;;;;;;;;;;4.20;99.90;;;;;;5096970;28;20105;-62
2022/04/04 06:05:08;;;;;;;9.25;4.70;;;4.50;99.90;;;;;;5096391;28;19920;-64
2022/04/04 06:07:39;;;;;;;11.73;4.90;;;4.10;99.90;;;;;;5096443;28;20043;-62
2022/04/04 06:10:07;;;;;;;10.05;4.82;;;4.10;99.90;;;;;;5096414;28;20048;-62
2022/04/04 06:12:37;;;;;;;10.45;4.78;;;4.20;99.90;;;;;;5088641;28;20408;-65
2022/04/04 06:15:03;;;;;;;11.07;5.13;;;4.20;99.90;;;;;;5083380;28;20155;-64
2022/04/04 06:17:28;;;;;;;8.18;4.50;;;4.10;99.90;;;;;;5092622;28;20329;-62
2022/04/04 06:19:55;;;;;;;10.23;4.72;;;4.20;99.90;;;;;;5092990;28;20109;-64
2022/04/04 06:22:25;;;;;;;11.63;6.00;;;4.10;99.90;;;;;;5094159;28;20047;-62
2022/04/04 06:24:51;;;;;;;13.13;6.18;;;4.50;99.90;;;;;;5090338;28;20129;-64
2022/04/04 06:27:17;;;;;;;13.32;6.10;;;4.50;99.90;;;;;;5087151;28;20052;-65
2022/04/04 06:29:43;;;;;;;9.82;6.13;;;4.40;99.90;;;;;;5093733;28;20059;-62
2022/04/04 06:32:10;;;;;;;14.07;7.47;;;4.50;99.90;;;;;;5092986;28;20048;-63
2022/04/04 06:34:36;;;;;;;15.93;7.72;;;4.20;99.90;;;;;;5092597;28;20054;-63
2022/04/04 06:37:04;;;;;;;14.25;8.20;;;4.50;99.90;;;;;;5089742;28;20044;-62
2022/04/04 06:39:30;;;;;;;16.38;8.25;;;4.30;99.90;;;;;;5089872;28;20059;-61
2022/04/04 06:41:56;;;;;;;16.75;9.20;;;4.60;99.90;;;;;;5092779;28;20105;-62
2022/04/04 06:44:23;;;;;;;16.73;9.20;;;4.40;99.90;;;;;;5092001;28;20181;-67
2022/04/04 06:46:49;;;;;;;20.10;9.13;;;4.50;99.90;;;;;;5088797;28;20047;-63
2022/04/04 06:49:15;;;;;;;18.20;10.35;;;4.50;99.90;;;;;;5074685;28;20060;-63
2022/04/04 06:51:40;;;;;;;17.98;10.45;;;4.50;99.90;;;;;;5092770;28;20043;-63
2022/04/04 06:54:07;;;;;;;25.55;10.90;;;4.70;99.90;;;;;;5091948;28;20044;-63
2022/04/04 06:56:34;;;;;;;23.15;11.18;;;4.60;99.90;;;;;;5088346;28;20051;-63
2022/04/04 07:06:03;;;;;;;27.33;13.50;;;;;;;;;;5103620;27;21200;-62
2022/04/04 07:08:29;;;;;;;26.40;15.35;;;5.20;99.90;;;;;;5108327;28;20051;-62
2022/04/04 07:10:55;;;;;;;25.70;13.77;;;5.10;99.90;;;;;;5107556;28;20505;-61
2022/04/04 07:13:21;;;;;;;;;;;5.10;99.90;;;;;;5109330;28;20048;-61
2022/04/04 07:15:46;;;;;;;22.55;13.10;;;4.90;99.90;;;;;;5106522;28;20252;-63
2022/04/04 07:18:12;;;;;;;25.27;13.85;;;5.00;99.90;;;;;;5109167;28;20040;-62
2022/04/04 07:20:38;;;;;;;35.03;15.05;;;4.90;99.90;;;;;;5108991;28;20149;-61
2022/04/04 07:23:05;;;;;;;26.95;12.95;;;5.10;99.90;;;;;;5108203;28;20112;-64
2022/04/04 07:25:31;;;;;;;31.73;15.65;;;5.10;99.90;;;;;;5105872;28;20476;-64
2022/04/04 07:27:57;;;;;;;29.92;12.95;;;5.30;99.90;;;;;;5107633;28;20044;-64
2022/04/04 07:30:23;;;;;;;32.28;14.73;;;5.20;99.90;;;;;;5108503;28;20044;-63
2022/04/04 07:32:50;;;;;;;29.38;15.27;;;5.40;99.90;;;;;;5109739;28;20052;-64
2022/04/04 07:35:16;;;;;;;27.08;12.75;;;5.00;99.90;;;;;;5109823;28;20040;-63
2022/04/04 07:37:44;;;;;;;21.38;13.25;;;5.10;99.90;;;;;;5109841;28;20131;-63
2022/04/04 07:40:11;;;;;;;22.00;12.23;;;5.40;99.90;;;;;;5109829;28;20059;-62
2022/04/04 07:42:38;;;;;;;21.42;11.45;;;5.40;99.90;;;;;;5109786;28;20088;-62
2022/04/04 07:45:05;;;;;;;24.35;12.60;;;5.30;99.90;;;;;;5109658;28;20048;-64
2022/04/04 07:47:31;;;;;;;20.35;11.02;;;5.40;99.90;;;;;;5109748;28;20047;-64
2022/04/04 07:49:57;;;;;;;18.73;11.35;;;5.40;99.90;;;;;;5109692;28;20365;-63
2022/04/04 07:52:23;;;;;;;17.45;10.32;;;5.80;99.90;;;;;;5109905;28;20434;-63
2022/04/04 07:54:49;;;;;;;22.00;9.98;;;5.50;99.90;;;;;;5108594;28;20092;-63
2022/04/04 07:57:15;;;;;;;21.75;11.65;;;5.60;99.90;;;;;;5109558;28;20180;-63
2022/04/04 07:59:41;;;;;;;;;;;5.40;99.90;;;;;;5108660;28;20043;-64
2022/04/04 08:02:07;;;;;;;16.77;9.98;;;5.60;99.90;;;;;;5109202;28;19927;-63
2022/04/04 08:04:32;;;;;;;15.93;9.68;;;5.60;99.90;;;;;;5109254;28;20047;-63
2022/04/04 08:06:59;;;;;;;21.92;9.93;;;5.60;99.90;;;;;;5108137;28;20047;-63
2022/04/04 08:09:26;;;;;;;22.77;10.40;;;5.80;99.90;;;;;;5109310;28;20052;-64
2022/04/04 08:11:54;;;;;;;21.33;11.05;;;5.70;99.90;;;;;;5109206;28;20100;-65
2022/04/04 08:14:21;;;;;;;14.32;8.95;;;5.80;99.90;;;;;;5109300;28;20058;-64
2022/04/04 08:16:47;;;;;;;12.38;7.82;;;5.70;99.90;;;;;;5097811;28;20078;-64
2022/04/04 08:19:13;;;;;;;18.83;9.65;;;6.00;99.90;;;;;;5095536;28;20044;-63
2022/04/04 08:21:44;;;;;;;19.05;8.68;;;5.70;99.90;;;;;;5094265;28;20048;-63
2022/04/04 08:24:10;;;;;;;15.77;8.52;;;5.80;99.90;;;;;;5094193;28;20468;-65
2022/04/04 08:26:37;;;;;;;15.38;7.60;;;5.90;99.90;;;;;;5094372;28;20100;-64
2022/04/04 08:29:03;;;;;;;15.85;7.68;;;5.60;99.90;;;;;;5095342;28;20055;-64
2022/04/04 08:31:28;;;;;;;13.77;7.07;;;5.80;99.90;;;;;;5095316;28;20047;-63
2022/04/04 08:33:54;;;;;;;17.33;7.90;;;6.20;99.90;;;;;;5095297;28;20185;-63
2022/04/04 08:36:20;;;;;;;12.48;7.22;;;6.20;99.90;;;;;;5095172;28;20048;-64
2022/04/04 08:38:46;;;;;;;13.43;7.15;;;5.90;99.90;;;;;;5094008;28;20040;-65
2022/04/04 08:41:12;;;;;;;19.63;7.38;;;6.10;99.90;;;;;;5094844;28;20063;-64
2022/04/04 08:43:40;;;;;;;14.18;7.47;;;5.90;99.90;;;;;;5094882;28;20113;-64
2022/04/04 08:46:07;;;;;;;13.80;7.25;;;5.70;99.90;;;;;;5094952;28;20044;-63
2022/04/04 08:48:35;;;;;;;15.82;6.50;;;5.80;99.90;;;;;;5094912;28;20048;-63
2022/04/04 08:51:01;;;;;;;12.70;6.15;;;6.10;99.90;;;;;;5093719;28;20087;-64
2022/04/04 08:53:28;;;;;;;9.45;6.65;;;6.20;99.90;;;;;;5094863;28;20090;-65
2022/04/04 08:55:57;;;;;;;12.88;6.05;;;6.10;99.90;;;;;;5094814;28;20051;-64
2022/04/04 08:58:26;;;;;;;11.68;5.03;;;6.10;99.90;;;;;;5094799;28;20101;-63
2022/04/04 09:00:52;;;;;;;8.60;5.15;;;6.10;99.90;;;;;;5094690;28;20094;-65
2022/04/04 09:03:26;;;;;;;11.82;5.40;;;6.10;99.90;;;;;;5094675;28;20040;-63
2022/04/04 09:05:56;;;;;;;13.70;5.60;;;6.20;99.90;;;;;;5094734;28;20113;-63
2022/04/04 09:08:23;;;;;;;10.40;5.13;;;6.40;99.90;;;;;;5093620;28;20040;-64
2022/04/04 09:10:54;;;;;;;12.10;4.60;;;6.00;99.90;;;;;;5094476;28;20128;-65
2022/04/04 09:13:22;;;;;;;11.55;5.53;;;6.40;99.90;;;;;;5094585;28;20131;-65
2022/04/04 09:15:56;;;;;;;9.50;5.32;;;5.90;99.90;;;;;;5094393;28;20446;-64
2022/04/04 09:18:46;;;;;;;13.75;6.10;;;6.30;99.90;;;;;;5076610;28;20058;-63
2022/04/04 09:21:18;;;;;;;13.55;5.78;;;6.20;99.90;;;;;;5089021;28;20052;-65
2022/04/04 09:23:48;;;;;;;12.95;5.40;;;6.40;99.90;;;;;;5093228;28;20125;-64
2022/04/04 09:26:43;;;;;;;10.32;4.95;;;6.60;99.90;;;;;;5093156;28;20134;-63
2022/04/04 09:29:14;;;;;;;13.00;5.70;;;6.70;99.90;;;;;;5092234;28;20059;-65
2022/04/04 09:32:08;;;;;;;13.55;4.78;;;6.70;99.90;;;;;;5094166;28;20036;-63
2022/04/04 09:34:52;;;;;;;9.90;5.18;;;6.60;99.90;;;;;;5092870;28;20085;-64
2022/04/04 09:37:21;;;;;;;9.65;5.20;;;6.60;99.90;;;;;;5076130;28;20046;-64
2022/04/04 09:40:08;;;;;;;15.48;8.95;;;6.30;99.90;;;;;;5094044;28;20048;-63
2022/04/04 09:42:34;;;;;;;10.65;5.40;;;6.60;99.90;;;;;;5092970;28;20138;-63
2022/04/04 09:45:09;;;;;;;13.10;5.35;;;7.00;99.90;;;;;;5093801;28;20193;-64
2022/04/04 09:48:11;;;;;;;12.43;4.95;;;6.50;99.90;;;;;;5093588;28;20123;-65
2022/04/04 09:50:46;;;;;;;20.92;11.70;;;6.70;99.90;;;;;;5034620;28;20053;-64
2022/04/04 09:53:22;;;;;;;14.32;4.55;;;6.40;99.90;;;;;;5087733;28;20063;-64
2022/04/04 09:55:52;;;;;;;12.52;4.65;;;6.60;99.90;;;;;;5075418;28;20538;-64
2022/04/04 09:58:21;;;;;;;14.68;4.85;;;6.70;99.90;;;;;;5093609;28;20039;-64
2022/04/04 10:00:50;;;;;;;13.68;4.80;;;6.90;99.90;;;;;;5093600;28;20486;-63
2022/04/04 10:03:17;;;;;;;10.85;4.30;;;6.90;99.90;;;;;;5092212;28;20055;-64
2022/04/04 10:05:45;;;;;;;10.43;3.80;;;6.70;99.90;;;;;;5093258;28;20060;-64
2022/04/04 10:08:15;;;;;;;13.88;4.43;;;7.00;99.90;;;;;;5093416;28;20052;-65
2022/04/04 10:10:43;;;;;;;11.48;4.40;;;6.80;99.90;;;;;;5093153;28;20127;-64
2022/04/04 10:13:10;;;;;;;13.70;4.68;;;6.80;99.90;;;;;;5075126;28;20062;-63
2022/04/04 10:15:39;;;;;;;13.10;4.22;;;7.10;99.90;;;;;;5092242;28;20134;-64
2022/04/04 10:18:06;;;;;;;12.45;4.75;;;6.80;99.90;;;;;;5092056;28;20075;-63
2022/04/04 10:20:32;;;;;;;10.80;3.83;;;6.60;99.90;;;;;;5093204;28;20123;-64
2022/04/04 10:22:58;;;;;;;13.48;3.72;;;6.90;99.90;;;;;;5093339;28;20044;-63
2022/04/04 10:25:27;;;;;;;11.38;3.45;;;9.10;99.90;;;;;;5091825;28;20405;-63
2022/04/04 10:27:54;;;;;;;8.07;3.30;;;6.80;99.90;;;;;;5097843;28;20114;-63
2022/04/04 10:30:40;;;;;;;15.50;3.72;;;7.10;99.90;;;;;;5111377;28;20465;-63
2022/04/04 10:33:23;;;;;;;11.90;3.85;;;7.00;99.90;;;;;;5112195;28;20149;-64
2022/04/04 10:36:03;;;;;;;8.27;3.47;;;6.80;99.90;;;;;;5113374;28;20047;-63
2022/04/04 10:38:46;;;;;;;7.47;3.30;;;7.00;99.90;;;;;;5113060;28;20476;-63
2022/04/04 10:41:18;;;;;;;11.18;3.42;;;7.20;99.90;;;;;;5112131;28;20103;-64
2022/04/04 10:43:52;;;;;;;11.98;3.47;;;7.20;99.90;;;;;;5113170;28;20051;-63
2022/04/04 10:46:19;;;;;;;7.05;2.72;;;7.00;99.90;;;;;;5113191;28;20044;-63
2022/04/04 10:48:49;;;;;;;6.28;2.55;;;;;;;;;;5113162;28;20534;-63
2022/04/04 10:51:30;;;;;;;10.77;3.40;;;7.30;99.90;;;;;;5112097;28;20074;-64
2022/04/04 10:54:22;;;;;;;8.68;3.60;;;7.10;99.90;;;;;;5113071;28;20051;-65
2022/04/04 10:56:47;;;;;;;10.07;3.45;;;7.00;99.90;;;;;;5111755;28;20126;-64
2022/04/04 10:59:16;;;;;;;7.57;3.42;;;7.30;99.90;;;;;;5112004;28;20201;-64
2022/04/04 11:02:02;;;;;;;7.30;2.83;;;7.40;99.90;;;;;;5113088;28;20369;-66
2022/04/04 11:04:36;;;;;;;10.52;2.85;;;7.40;99.90;;;;;;5112679;28;20052;-65
2022/04/04 11:10:03;;;;;;;5.25;2.40;;;7.30;99.90;;;;;;5113008;28;20059;-68
2022/04/04 11:12:29;;;;;;;9.02;3.22;;;7.40;99.90;;;;;;5112937;28;20039;-65
2022/04/04 11:15:07;;;;;;;5.82;2.90;;;7.30;99.90;;;;;;5111696;28;20048;-65
2022/04/04 11:17:35;;;;;;;7.70;3.50;;;7.60;99.90;;;;;;5112935;28;20051;-64
2022/04/04 11:20:21;;;;;;;7.20;3.40;;;7.50;99.90;;;;;;5111845;28;20059;-65
2022/04/04 11:22:52;;;;;;;7.88;3.10;;;7.60;99.90;;;;;;5112884;28;20051;-67
2022/04/04 11:25:22;;;;;;;54.20;22.15;;;7.60;99.90;;;;;;5111438;28;20040;-67
2022/04/04 11:27:48;;;;;;;9.02;4.88;;;7.50;99.90;;;;;;5112976;28;20035;-66
2022/04/04 11:30:19;;;;;;;6.88;4.47;;;7.60;99.90;;;;;;5111423;28;20183;-66
2022/04/04 11:32:46;;;;;;;4.80;2.55;;;7.60;99.90;;;;;;5094664;28;20048;-66
2022/04/04 11:35:23;;;;;;;7.65;2.95;;;7.60;99.90;;;;;;5112750;28;20035;-67
2022/04/04 11:37:55;;;;;;;6.38;3.55;;;7.90;99.90;;;;;;5111705;28;20056;-66
2022/04/04 11:40:29;;;;;;;5.93;3.45;;;8.20;99.90;;;;;;5111527;28;20062;-66
2022/04/04 11:42:57;;;;;;;8.98;3.63;;;8.10;99.90;;;;;;5111332;28;20411;-65
2022/04/04 11:45:25;;;;;;;6.35;3.25;;;7.60;99.90;;;;;;5112477;28;20048;-66
2022/04/04 11:48:16;;;;;;;8.32;3.47;;;8.30;99.90;;;;;;5088038;28;20051;-67
2022/04/04 11:50:42;;;;;;;7.30;3.63;;;7.50;99.90;;;;;;5089415;28;20476;-66
2022/04/04 11:53:22;;;;;;;7.03;3.67;;;8.20;99.90;;;;;;5094633;28;20044;-70
2022/04/04 11:55:48;;;;;;;7.88;3.85;;;7.90;99.90;;;;;;5074842;28;20055;-67
2022/04/04 11:58:15;;;;;;;;;;;8.80;99.90;;;;;;5093595;28;20099;-66
2022/04/04 12:00:55;;;;;;;6.65;4.10;;;7.90;99.90;;;;;;5094649;28;19970;-66
2022/04/04 12:03:25;;;;;;;6.82;4.80;;;8.00;99.90;;;;;;5092810;28;20044;-67
2022/04/04 12:05:51;;;;;;;9.18;5.10;;;8.00;99.90;;;;;;5094170;28;20055;-66
2022/04/04 12:08:20;;;;;;;10.98;5.43;;;8.20;99.90;;;;;;5093105;28;20160;-67
2022/04/04 12:10:47;;;;;;;11.25;4.95;;;8.60;99.90;;;;;;5093951;28;20048;-66
2022/04/04 12:13:18;;;;;;;8.73;5.28;;;8.10;99.90;;;;;;5093054;28;20051;-72
2022/04/04 12:15:44;;;;;;;9.85;6.05;;;8.30;99.90;;;;;;5090312;28;20044;-66
2022/04/04 12:18:18;;;;;;;13.05;5.90;;;9.10;99.90;;;;;;5093807;28;20567;-65
2022/04/04 12:20:45;;;;;;;16.23;6.07;;;9.90;99.90;;;;;;5090247;28;20499;-67
2022/04/04 12:26:06;;;;;;;21.90;10.55;;;9.00;99.90;;;;;;5093531;28;20148;-67
2022/04/04 12:28:35;;;;;;;14.30;6.57;;;8.10;99.90;;;;;;5092922;28;20345;-68
2022/04/04 12:31:15;;;;;;;15.65;6.05;;;8.90;99.90;;;;;;5094245;28;20104;-67
2022/04/04 12:33:41;;;;;;;14.50;6.75;;;9.80;99.90;;;;;;5088332;28;20044;-69
2022/04/04 12:36:07;;;;;;;21.05;7.03;;;8.60;99.90;;;;;;5097229;28;20199;-69
2022/04/04 12:38:40;;;;;;;15.63;6.47;;;8.30;99.90;;;;;;5093845;28;20135;-68
2022/04/04 12:41:17;;;;;;;19.40;7.38;;;8.80;99.90;;;;;;5093214;28;20392;-69
2022/04/04 12:43:45;;;;;;;18.30;6.80;;;8.30;99.90;;;;;;5093879;28;20043;-68
2022/04/04 12:46:25;;;;;;;20.80;8.13;;;9.50;99.90;;;;;;5095022;28;20448;-67
2022/04/04 12:48:51;;;;;;;27.17;12.45;;;8.70;99.90;;;;;;5095104;28;20085;-69
2022/04/04 12:51:29;;;;;;;18.75;7.10;;;8.70;99.90;;;;;;5095030;28;20053;-67
2022/04/04 12:53:56;;;;;;;17.77;8.77;;;9.90;99.90;;;;;;5094928;28;20055;-68
2022/04/04 12:56:23;;;;;;;21.83;8.15;;;8.40;99.90;;;;;;5094840;28;20531;-70
2022/04/04 12:59:06;;;;;;;19.00;8.57;;;9.20;99.90;;;;;;5094511;28;20518;-67
2022/04/04 13:01:32;;;;;;;36.53;23.58;;;9.10;99.90;;;;;;5093608;28;20396;-68
2022/04/04 13:03:58;;;;;;;19.60;8.18;;;8.40;99.90;;;;;;5094335;28;20403;-68
2022/04/04 13:06:28;;;;;;;16.30;6.78;;;8.60;99.90;;;;;;5094510;28;20100;-69
2022/04/04 13:08:59;;;;;;;21.77;6.97;;;8.70;99.90;;;;;;5093598;28;20388;-66